createdAt,value
2019-05-29T00:05:59.885Z,48.82
2019-05-29T00:16:03.479Z,48.46
2019-05-29T00:26:08.240Z,48.59
2019-05-29T00:36:12.334Z,48.43
2019-05-29T00:46:16.064Z,48.81
2019-05-29T00:56:19.603Z,48.93
2019-05-29T01:06:23.153Z,49.11
2019-05-29T01:16:26.686Z,48.93
2019-05-29T01:26:30.250Z,48.65
2019-05-29T01:36:33.794Z,49.14
2019-05-29T01:46:37.323Z,49.09
2019-05-29T01:56:40.892Z,49.09
2019-05-29T02:06:44.457Z,49.16
2019-05-29T02:16:48.008Z,49.24
2019-05-29T02:26:51.549Z,48.15
2019-05-29T02:36:55.153Z,49.31
2019-05-29T02:46:58.721Z,48.04
2019-05-29T02:57:02.271Z,49.29
2019-05-29T03:07:05.810Z,49.03
2019-05-29T03:17:09.391Z,49.03
2019-05-29T03:27:12.952Z,48.88
2019-05-29T03:37:16.481Z,48.87
2019-05-29T03:47:20.046Z,47.99
2019-05-29T03:57:23.587Z,48.93
2019-05-29T04:07:27.149Z,48.84
2019-05-29T04:17:32.307Z,48.60
2019-05-29T04:27:38.281Z,48.20
2019-05-29T04:37:42.018Z,46.92
2019-05-29T04:47:45.604Z,48.24
2019-05-29T04:57:50.993Z,48.21
2019-05-29T05:07:54.643Z,48.35
2019-05-29T05:17:58.237Z,47.66
2019-05-29T05:28:01.826Z,47.62
2019-05-29T05:38:05.815Z,47.89
2019-05-29T05:48:09.395Z,46.77
2019-05-29T05:58:12.972Z,46.80
2019-05-29T06:08:16.545Z,47.01
2019-05-29T06:18:21.839Z,46.35
2019-05-29T06:28:25.390Z,45.95
2019-05-29T06:38:28.967Z,46.01
2019-05-29T06:48:46.244Z,46.20
2019-05-29T06:58:38.147Z,46.41
2019-05-29T07:08:45.089Z,46.70
2019-05-29T07:19:23.432Z,46.05
2019-05-29T07:29:06.940Z,46.12
2019-05-29T07:39:03.482Z,44.76
2019-05-29T07:49:17.995Z,45.41
2019-05-29T07:59:21.530Z,44.09
2019-05-29T08:09:25.075Z,43.49
2019-05-29T08:19:28.980Z,42.61
2019-05-29T08:29:32.534Z,43.49
2019-05-29T08:39:37.088Z,41.79
2019-05-29T08:49:41.759Z,42.46
2019-05-29T08:59:46.386Z,42.39
2019-05-29T09:09:51.213Z,43.11
2019-05-29T09:19:55.083Z,43.33
2019-05-29T09:29:58.645Z,43.50
2019-05-29T09:40:02.187Z,43.21
2019-05-29T09:50:08.214Z,43.17
2019-05-29T10:00:11.766Z,44.17
2019-05-29T10:10:16.925Z,44.31
2019-05-29T10:20:20.583Z,43.46
2019-05-29T10:30:24.236Z,43.55
2019-05-29T10:40:27.847Z,43.52
2019-05-29T10:50:31.475Z,43.63
2019-05-29T11:00:38.649Z,43.64
2019-05-29T11:10:40.353Z,43.31
2019-05-29T11:20:43.944Z,43.06
2019-05-29T11:30:48.626Z,42.74
2019-05-29T11:41:22.358Z,42.63
2019-05-29T11:50:58.302Z,42.60
2019-05-29T12:01:01.877Z,42.20
2019-05-29T12:11:07.121Z,42.03
2019-05-29T12:21:10.984Z,41.96
2019-05-29T12:31:14.557Z,41.81
2019-05-29T12:41:18.152Z,41.72
2019-05-29T12:51:21.733Z,41.81
2019-05-29T13:01:25.328Z,41.90
2019-05-29T13:11:28.906Z,41.95
2019-05-29T13:21:32.488Z,42.21
2019-05-29T13:31:36.060Z,42.21
2019-05-29T13:41:39.632Z,42.12
2019-05-29T13:51:43.241Z,42.14
2019-05-29T14:01:48.596Z,42.30
2019-05-29T14:11:52.320Z,42.31
2019-05-29T14:21:55.952Z,42.37
2019-05-29T14:32:00.825Z,42.61
2019-05-29T14:42:06.038Z,42.39
2019-05-29T14:52:11.339Z,42.61
2019-05-29T15:02:22.763Z,42.74
2019-05-29T15:12:20.215Z,42.72
2019-05-29T15:22:23.794Z,42.72
2019-05-29T15:32:27.355Z,42.88
2019-05-29T15:42:30.945Z,42.87
2019-05-29T15:52:34.532Z,42.86
2019-05-29T16:02:38.096Z,42.92
2019-05-29T16:12:41.675Z,42.78
2019-05-29T16:22:45.286Z,42.78
2019-05-29T16:32:48.851Z,42.60
2019-05-29T16:42:52.398Z,42.76
2019-05-29T16:52:55.970Z,43.04
2019-05-29T17:02:59.525Z,43.01
2019-05-29T17:13:03.340Z,42.66
2019-05-29T17:23:06.898Z,42.34
2019-05-29T17:33:10.472Z,43.94
2019-05-29T17:43:15.339Z,43.12
2019-05-29T17:53:19.991Z,43.43
2019-05-29T18:03:24.206Z,43.66
2019-05-29T18:13:27.898Z,43.73
2019-05-29T18:23:31.474Z,43.81
2019-05-29T18:33:35.020Z,44.30
2019-05-29T18:43:38.567Z,43.99
2019-05-29T18:53:42.183Z,42.57
2019-05-29T19:03:45.767Z,40.66
2019-05-29T19:13:49.552Z,40.55
2019-05-29T19:23:53.098Z,41.06
2019-05-29T19:33:56.697Z,42.07
2019-05-29T19:44:00.254Z,41.69
2019-05-29T19:54:05.982Z,42.78
2019-05-29T20:04:09.634Z,43.24
2019-05-29T20:14:13.216Z,43.14
2019-05-29T20:24:16.815Z,43.53
2019-05-29T20:34:20.385Z,43.80
2019-05-29T20:44:24.329Z,44.86
2019-05-29T20:54:27.871Z,45.79
2019-05-29T21:04:33.054Z,46.00
2019-05-29T21:14:37.830Z,46.03
2019-05-29T21:24:46.425Z,46.31
2019-05-29T21:34:46.784Z,47.00
2019-05-29T21:44:50.358Z,46.40
2019-05-29T21:54:53.935Z,46.45
2019-05-29T22:04:57.500Z,46.05
2019-05-29T22:15:02.532Z,46.31
2019-05-29T22:25:07.438Z,45.54
2019-05-29T22:35:11.023Z,46.35
2019-05-29T22:45:14.611Z,46.38
2019-05-29T22:55:18.196Z,46.57
2019-05-29T23:05:21.825Z,45.73
2019-05-29T23:15:25.392Z,45.20
2019-05-29T23:25:29.273Z,38.78
2019-05-29T23:35:33.168Z,34.72
2019-05-29T23:45:37.049Z,36.32
2019-05-29T23:55:40.828Z,36.89
